Airport ID:KBVU
Update Time (UTC):22/08/2019 15:39
Wind Speed (Knots):1
Wind Direction (Magnetic):110
Temperature (°C):31.3
Dew Point (°C):-5.5
Humidity (%):9.2
Altimeter (inHg):29.77
Density Altitude (Feet):04800
Visibility (Miles):10
Clouds (Hundreds of feet):CLR
Present Weather:
METAR:METAR KBVU 221535Z AUTO 00000KT 10SM CLR 31/M06 A2977 RMK AO2

The data displayed is for advisory purposes only and is not to be used for flight planning or operations.

This page is not automatically refreshed. Reload the page to see current data.